sensor_id;sensor_type;location;lat;lon;timestamp;P1;durP1;ratioP1;P2;durP2;ratioP2
10497;SDS011;5296;51.060;13.750;2023-03-01T00:02:07;19.80;;;15.67;;
10497;SDS011;5296;51.060;13.750;2023-03-01T00:07:09;20.07;;;15.03;;
10497;SDS011;5296;51.060;13.750;2023-03-01T00:12:11;21.87;;;15.97;;
10497;SDS011;5296;51.060;13.750;2023-03-01T00:17:12;19.53;;;15.27;;
10497;SDS011;5296;51.060;13.750;2023-03-01T00:22:14;22.43;;;16.43;;
10497;SDS011;5296;51.060;13.750;2023-03-01T00:27:16;20.53;;;15.33;;
10497;SDS011;5296;51.060;13.750;2023-03-01T00:32:18;22.53;;;16.17;;
10497;SDS011;5296;51.060;13.750;2023-03-01T00:37:20;20.33;;;15.90;;
10497;SDS011;5296;51.060;13.750;2023-03-01T00:42:22;19.07;;;15.57;;
10497;SDS011;5296;51.060;13.750;2023-03-01T00:47:24;21.03;;;16.70;;
10497;SDS011;5296;51.060;13.750;2023-03-01T00:52:26;20.17;;;15.90;;
10497;SDS011;5296;51.060;13.750;2023-03-01T00:57:28;19.53;;;15.83;;
10497;SDS011;5296;51.060;13.750;2023-03-01T01:02:31;21.23;;;16.40;;
10497;SDS011;5296;51.060;13.750;2023-03-01T01:07:34;20.37;;;16.30;;
10497;SDS011;5296;51.060;13.750;2023-03-01T01:12:36;21.37;;;14.93;;
10497;SDS011;5296;51.060;13.750;2023-03-01T01:17:38;17.57;;;13.37;;
10497;SDS011;5296;51.060;13.750;2023-03-01T01:22:40;19.33;;;13.60;;
10497;SDS011;5296;51.060;13.750;2023-03-01T01:27:41;16.80;;;13.57;;
10497;SDS011;5296;51.060;13.750;2023-03-01T01:32:43;18.10;;;13.80;;
10497;SDS011;5296;51.060;13.750;2023-03-01T01:37:44;16.87;;;13.80;;
10497;SDS011;5296;51.060;13.750;2023-03-01T01:42:46;18.53;;;13.63;;
10497;SDS011;5296;51.060;13.750;2023-03-01T01:47:48;17.17;;;13.73;;
10497;SDS011;5296;51.060;13.750;2023-03-01T01:52:50;16.90;;;12.70;;
10497;SDS011;5296;51.060;13.750;2023-03-01T01:57:59;17.67;;;13.03;;
10497;SDS011;5296;51.060;13.750;2023-03-01T02:03:10;18.03;;;13.70;;
10497;SDS011;5296;51.060;13.750;2023-03-01T02:08:14;18.90;;;13.67;;
10497;SDS011;5296;51.060;13.750;2023-03-01T02:13:18;17.30;;;13.20;;
10497;SDS011;5296;51.060;13.750;2023-03-01T02:18:20;17.13;;;13.73;;
10497;SDS011;5296;51.060;13.750;2023-03-01T02:23:22;18.50;;;13.90;;
10497;SDS011;5296;51.060;13.750;2023-03-01T02:28:34;18.27;;;13.77;;
10497;SDS011;5296;51.060;13.750;2023-03-01T02:33:37;19.30;;;14.57;;
10497;SDS011;5296;51.060;13.750;2023-03-01T02:38:40;18.80;;;14.17;;
10497;SDS011;5296;51.060;13.750;2023-03-01T02:43:42;20.00;;;14.73;;
10497;SDS011;5296;51.060;13.750;2023-03-01T02:48:46;17.97;;;15.00;;
10497;SDS011;5296;51.060;13.750;2023-03-01T02:54:04;20.23;;;15.47;;
10497;SDS011;5296;51.060;13.750;2023-03-01T02:59:08;20.97;;;15.50;;
10497;SDS011;5296;51.060;13.750;2023-03-01T03:04:11;20.83;;;15.03;;
10497;SDS011;5296;51.060;13.750;2023-03-01T03:09:21;22.50;;;16.70;;
10497;SDS011;5296;51.060;13.750;2023-03-01T03:14:23;19.97;;;14.87;;
10497;SDS011;5296;51.060;13.750;2023-03-01T03:19:25;21.00;;;15.63;;
10497;SDS011;5296;51.060;13.750;2023-03-01T03:24:26;19.10;;;14.40;;
10497;SDS011;5296;51.060;13.750;2023-03-01T03:29:39;17.80;;;13.73;;
10497;SDS011;5296;51.060;13.750;2023-03-01T03:34:41;19.50;;;14.33;;
10497;SDS011;5296;51.060;13.750;2023-03-01T03:39:42;16.57;;;13.20;;
10497;SDS011;5296;51.060;13.750;2023-03-01T03:44:44;16.33;;;13.40;;
10497;SDS011;5296;51.060;13.750;2023-03-01T03:49:45;18.90;;;13.97;;
10497;SDS011;5296;51.060;13.750;2023-03-01T03:54:47;17.47;;;14.03;;
10497;SDS011;5296;51.060;13.750;2023-03-01T03:59:49;18.97;;;14.70;;
10497;SDS011;5296;51.060;13.750;2023-03-01T04:04:50;20.50;;;14.17;;
10497;SDS011;5296;51.060;13.750;2023-03-01T04:09:52;18.43;;;13.67;;
10497;SDS011;5296;51.060;13.750;2023-03-01T04:14:53;16.90;;;13.63;;
10497;SDS011;5296;51.060;13.750;2023-03-01T04:19:55;19.10;;;12.97;;
10497;SDS011;5296;51.060;13.750;2023-03-01T04:24:57;17.70;;;13.57;;
10497;SDS011;5296;51.060;13.750;2023-03-01T04:29:58;20.97;;;14.20;;
10497;SDS011;5296;51.060;13.750;2023-03-01T04:35:00;19.33;;;13.67;;
10497;SDS011;5296;51.060;13.750;2023-03-01T04:40:02;16.53;;;13.43;;
10497;SDS011;5296;51.060;13.750;2023-03-01T04:45:16;16.73;;;14.20;;
10497;SDS011;5296;51.060;13.750;2023-03-01T04:50:18;18.50;;;14.40;;
10497;SDS011;5296;51.060;13.750;2023-03-01T04:55:25;19.53;;;14.07;;
10497;SDS011;5296;51.060;13.750;2023-03-01T05:00:27;19.97;;;13.97;;
10497;SDS011;5296;51.060;13.750;2023-03-01T05:05:33;18.30;;;13.90;;
10497;SDS011;5296;51.060;13.750;2023-03-01T05:10:37;20.93;;;13.97;;
10497;SDS011;5296;51.060;13.750;2023-03-01T05:15:39;18.93;;;13.80;;
10497;SDS011;5296;51.060;13.750;2023-03-01T05:20:41;20.53;;;14.10;;
10497;SDS011;5296;51.060;13.750;2023-03-01T05:25:43;19.60;;;13.97;;
10497;SDS011;5296;51.060;13.750;2023-03-01T05:30:45;20.03;;;14.40;;
10497;SDS011;5296;51.060;13.750;2023-03-01T05:35:48;16.90;;;13.07;;
10497;SDS011;5296;51.060;13.750;2023-03-01T05:40:51;17.80;;;14.07;;
10497;SDS011;5296;51.060;13.750;2023-03-01T05:45:52;17.50;;;13.33;;
10497;SDS011;5296;51.060;13.750;2023-03-01T05:50:54;19.80;;;13.93;;
10497;SDS011;5296;51.060;13.750;2023-03-01T05:55:56;16.53;;;13.40;;
10497;SDS011;5296;51.060;13.750;2023-03-01T06:00:57;18.57;;;13.73;;
10497;SDS011;5296;51.060;13.750;2023-03-01T06:05:59;19.93;;;14.23;;
10497;SDS011;5296;51.060;13.750;2023-03-01T06:11:01;18.07;;;13.77;;
10497;SDS011;5296;51.060;13.750;2023-03-01T06:16:05;17.23;;;14.23;;
10497;SDS011;5296;51.060;13.750;2023-03-01T06:21:08;18.27;;;13.93;;
10497;SDS011;5296;51.060;13.750;2023-03-01T06:26:10;18.70;;;13.07;;
10497;SDS011;5296;51.060;13.750;2023-03-01T06:31:11;19.33;;;14.80;;
10497;SDS011;5296;51.060;13.750;2023-03-01T06:36:14;18.53;;;14.53;;
10497;SDS011;5296;51.060;13.750;2023-03-01T06:41:20;18.37;;;13.77;;
10497;SDS011;5296;51.060;13.750;2023-03-01T06:46:22;17.73;;;13.73;;
10497;SDS011;5296;51.060;13.750;2023-03-01T06:51:23;19.83;;;14.30;;
10497;SDS011;5296;51.060;13.750;2023-03-01T06:56:25;18.40;;;13.10;;
10497;SDS011;5296;51.060;13.750;2023-03-01T07:01:26;19.23;;;13.40;;
10497;SDS011;5296;51.060;13.750;2023-03-01T07:06:28;19.77;;;14.60;;
10497;SDS011;5296;51.060;13.750;2023-03-01T07:11:30;17.70;;;13.73;;
10497;SDS011;5296;51.060;13.750;2023-03-01T07:16:32;19.20;;;15.07;;
10497;SDS011;5296;51.060;13.750;2023-03-01T07:21:34;19.90;;;14.47;;
10497;SDS011;5296;51.060;13.750;2023-03-01T07:26:36;20.53;;;14.63;;
10497;SDS011;5296;51.060;13.750;2023-03-01T07:31:38;20.77;;;14.57;;
10497;SDS011;5296;51.060;13.750;2023-03-01T07:36:39;21.10;;;15.27;;
10497;SDS011;5296;51.060;13.750;2023-03-01T07:41:44;19.37;;;15.03;;
10497;SDS011;5296;51.060;13.750;2023-03-01T07:46:45;22.23;;;16.20;;
10497;SDS011;5296;51.060;13.750;2023-03-01T07:51:47;20.97;;;15.57;;
10497;SDS011;5296;51.060;13.750;2023-03-01T07:56:49;23.43;;;15.97;;
10497;SDS011;5296;51.060;13.750;2023-03-01T08:01:51;22.17;;;15.43;;
10497;SDS011;5296;51.060;13.750;2023-03-01T08:06:53;21.97;;;15.80;;
10497;SDS011;5296;51.060;13.750;2023-03-01T08:11:56;21.27;;;16.63;;
10497;SDS011;5296;51.060;13.750;2023-03-01T08:16:58;22.20;;;17.13;;
10497;SDS011;5296;51.060;13.750;2023-03-01T08:22:01;21.73;;;15.80;;
10497;SDS011;5296;51.060;13.750;2023-03-01T08:27:03;22.87;;;16.27;;
10497;SDS011;5296;51.060;13.750;2023-03-01T08:32:05;21.60;;;16.00;;
10497;SDS011;5296;51.060;13.750;2023-03-01T08:37:06;22.43;;;16.00;;
10497;SDS011;5296;51.060;13.750;2023-03-01T08:42:08;23.27;;;16.63;;
10497;SDS011;5296;51.060;13.750;2023-03-01T08:47:10;22.93;;;16.87;;
10497;SDS011;5296;51.060;13.750;2023-03-01T08:52:11;22.20;;;15.57;;
10497;SDS011;5296;51.060;13.750;2023-03-01T08:57:13;23.37;;;15.93;;
10497;SDS011;5296;51.060;13.750;2023-03-01T09:02:16;23.97;;;18.00;;
10497;SDS011;5296;51.060;13.750;2023-03-01T09:07:19;24.03;;;17.53;;
10497;SDS011;5296;51.060;13.750;2023-03-01T09:12:20;26.17;;;17.50;;
10497;SDS011;5296;51.060;13.750;2023-03-01T09:17:22;22.23;;;17.40;;
10497;SDS011;5296;51.060;13.750;2023-03-01T09:22:24;22.47;;;16.93;;
10497;SDS011;5296;51.060;13.750;2023-03-01T09:27:25;21.73;;;17.30;;
10497;SDS011;5296;51.060;13.750;2023-03-01T09:32:29;23.10;;;18.10;;
10497;SDS011;5296;51.060;13.750;2023-03-01T09:37:33;27.23;;;18.80;;
10497;SDS011;5296;51.060;13.750;2023-03-01T09:42:35;27.10;;;17.53;;
10497;SDS011;5296;51.060;13.750;2023-03-01T09:47:37;23.00;;;17.60;;
10497;SDS011;5296;51.060;13.750;2023-03-01T09:52:50;23.30;;;17.67;;
10497;SDS011;5296;51.060;13.750;2023-03-01T09:58:44;23.20;;;17.57;;
10497;SDS011;5296;51.060;13.750;2023-03-01T10:03:34;21.90;;;17.10;;
10497;SDS011;5296;51.060;13.750;2023-03-01T10:08:42;24.20;;;18.00;;
10497;SDS011;5296;51.060;13.750;2023-03-01T10:19:12;22.40;;;18.00;;
10497;SDS011;5296;51.060;13.750;2023-03-01T10:24:17;23.93;;;17.33;;
10497;SDS011;5296;51.060;13.750;2023-03-01T10:29:30;22.07;;;16.93;;
10497;SDS011;5296;51.060;13.750;2023-03-01T10:34:36;23.63;;;16.93;;
10497;SDS011;5296;51.060;13.750;2023-03-01T10:39:44;22.40;;;17.07;;
10497;SDS011;5296;51.060;13.750;2023-03-01T10:50:22;22.47;;;16.20;;
10497;SDS011;5296;51.060;13.750;2023-03-01T10:55:34;21.73;;;15.67;;
10497;SDS011;5296;51.060;13.750;2023-03-01T11:05:53;17.07;;;13.80;;
10497;SDS011;5296;51.060;13.750;2023-03-01T11:11:07;17.13;;;13.40;;
10497;SDS011;5296;51.060;13.750;2023-03-01T11:16:14;17.13;;;13.07;;
10497;SDS011;5296;51.060;13.750;2023-03-01T11:21:15;16.60;;;12.37;;
10497;SDS011;5296;51.060;13.750;2023-03-01T11:26:17;15.37;;;11.83;;
10497;SDS011;5296;51.060;13.750;2023-03-01T11:31:19;15.03;;;12.20;;
10497;SDS011;5296;51.060;13.750;2023-03-01T11:41:40;15.37;;;11.20;;
10497;SDS011;5296;51.060;13.750;2023-03-01T11:46:51;17.80;;;11.33;;
10497;SDS011;5296;51.060;13.750;2023-03-01T11:57:39;12.60;;;10.03;;
10497;SDS011;5296;51.060;13.750;2023-03-01T12:02:57;14.50;;;11.27;;
10497;SDS011;5296;51.060;13.750;2023-03-01T12:08:22;12.47;;;9.43;;
10497;SDS011;5296;51.060;13.750;2023-03-01T12:29:30;15.67;;;11.20;;
10497;SDS011;5296;51.060;13.750;2023-03-01T12:34:52;15.67;;;11.97;;
10497;SDS011;5296;51.060;13.750;2023-03-01T12:50:51;18.57;;;12.83;;
10497;SDS011;5296;51.060;13.750;2023-03-01T12:55:55;17.40;;;13.03;;
10497;SDS011;5296;51.060;13.750;2023-03-01T13:06:12;15.73;;;13.20;;
10497;SDS011;5296;51.060;13.750;2023-03-01T13:11:19;19.00;;;13.17;;
10497;SDS011;5296;51.060;13.750;2023-03-01T13:21:31;18.70;;;13.20;;
10497;SDS011;5296;51.060;13.750;2023-03-01T13:26:33;18.00;;;13.50;;
10497;SDS011;5296;51.060;13.750;2023-03-01T13:32:24;15.00;;;12.23;;
10497;SDS011;5296;51.060;13.750;2023-03-01T13:37:44;17.63;;;12.53;;
10497;SDS011;5296;51.060;13.750;2023-03-01T13:42:48;15.60;;;12.40;;
10497;SDS011;5296;51.060;13.750;2023-03-01T13:48:24;16.23;;;11.77;;
10497;SDS011;5296;51.060;13.750;2023-03-01T13:53:29;19.13;;;13.20;;
10497;SDS011;5296;51.060;13.750;2023-03-01T13:58:33;18.50;;;13.32;;
10497;SDS011;5296;51.060;13.750;2023-03-01T14:03:49;17.57;;;12.87;;
10497;SDS011;5296;51.060;13.750;2023-03-01T14:08:59;19.93;;;14.10;;
10497;SDS011;5296;51.060;13.750;2023-03-01T14:19:17;18.03;;;12.83;;
10497;SDS011;5296;51.060;13.750;2023-03-01T14:24:34;15.80;;;11.73;;
10497;SDS011;5296;51.060;13.750;2023-03-01T14:29:37;15.67;;;13.00;;
10497;SDS011;5296;51.060;13.750;2023-03-01T14:34:43;22.33;;;14.63;;
10497;SDS011;5296;51.060;13.750;2023-03-01T14:39:46;19.40;;;12.90;;
10497;SDS011;5296;51.060;13.750;2023-03-01T14:44:50;18.23;;;13.83;;
10497;SDS011;5296;51.060;13.750;2023-03-01T14:49:55;14.83;;;11.90;;
10497;SDS011;5296;51.060;13.750;2023-03-01T14:55:19;16.23;;;12.57;;
10497;SDS011;5296;51.060;13.750;2023-03-01T15:00:26;16.15;;;12.25;;
10497;SDS011;5296;51.060;13.750;2023-03-01T15:05:30;14.52;;;12.10;;
10497;SDS011;5296;51.060;13.750;2023-03-01T15:10:34;15.87;;;12.43;;
10497;SDS011;5296;51.060;13.750;2023-03-01T15:15:43;15.80;;;12.10;;
10497;SDS011;5296;51.060;13.750;2023-03-01T15:20:48;16.57;;;11.70;;
10497;SDS011;5296;51.060;13.750;2023-03-01T15:25:51;14.80;;;11.27;;
10497;SDS011;5296;51.060;13.750;2023-03-01T15:41:46;14.68;;;10.85;;
10497;SDS011;5296;51.060;13.750;2023-03-01T15:46:49;14.07;;;11.00;;
10497;SDS011;5296;51.060;13.750;2023-03-01T15:51:51;13.33;;;11.13;;
10497;SDS011;5296;51.060;13.750;2023-03-01T15:56:55;14.97;;;11.60;;
10497;SDS011;5296;51.060;13.750;2023-03-01T16:01:57;14.67;;;10.97;;
10497;SDS011;5296;51.060;13.750;2023-03-01T16:06:59;14.00;;;11.00;;
10497;SDS011;5296;51.060;13.750;2023-03-01T16:12:00;16.80;;;10.52;;
10497;SDS011;5296;51.060;13.750;2023-03-01T16:17:02;13.63;;;11.20;;
10497;SDS011;5296;51.060;13.750;2023-03-01T16:22:04;12.77;;;10.33;;
10497;SDS011;5296;51.060;13.750;2023-03-01T16:27:06;15.00;;;10.70;;
10497;SDS011;5296;51.060;13.750;2023-03-01T16:32:08;14.03;;;10.03;;
10497;SDS011;5296;51.060;13.750;2023-03-01T16:37:10;12.93;;;9.87;;
10497;SDS011;5296;51.060;13.750;2023-03-01T16:42:11;14.17;;;10.93;;
10497;SDS011;5296;51.060;13.750;2023-03-01T16:47:13;13.73;;;10.20;;
10497;SDS011;5296;51.060;13.750;2023-03-01T16:52:15;12.97;;;10.40;;
10497;SDS011;5296;51.060;13.750;2023-03-01T16:57:16;16.37;;;11.07;;
10497;SDS011;5296;51.060;13.750;2023-03-01T17:02:18;14.07;;;10.87;;
10497;SDS011;5296;51.060;13.750;2023-03-01T17:07:21;15.37;;;10.77;;
10497;SDS011;5296;51.060;13.750;2023-03-01T17:12:23;16.07;;;11.13;;
10497;SDS011;5296;51.060;13.750;2023-03-01T17:17:25;14.32;;;11.90;;
10497;SDS011;5296;51.060;13.750;2023-03-01T17:22:27;16.23;;;11.65;;
10497;SDS011;5296;51.060;13.750;2023-03-01T17:27:29;16.43;;;12.00;;
10497;SDS011;5296;51.060;13.750;2023-03-01T17:32:35;17.43;;;11.90;;
10497;SDS011;5296;51.060;13.750;2023-03-01T17:37:38;20.97;;;12.93;;
10497;SDS011;5296;51.060;13.750;2023-03-01T17:42:40;20.37;;;14.23;;
10497;SDS011;5296;51.060;13.750;2023-03-01T17:47:41;17.47;;;13.00;;
10497;SDS011;5296;51.060;13.750;2023-03-01T17:52:43;16.47;;;12.53;;
10497;SDS011;5296;51.060;13.750;2023-03-01T17:57:44;21.93;;;14.53;;
10497;SDS011;5296;51.060;13.750;2023-03-01T18:02:46;19.07;;;12.97;;
10497;SDS011;5296;51.060;13.750;2023-03-01T18:07:49;19.27;;;14.20;;
10497;SDS011;5296;51.060;13.750;2023-03-01T18:12:51;22.07;;;14.30;;
10497;SDS011;5296;51.060;13.750;2023-03-01T18:17:53;18.80;;;13.97;;
10497;SDS011;5296;51.060;13.750;2023-03-01T18:22:54;17.47;;;12.87;;
10497;SDS011;5296;51.060;13.750;2023-03-01T18:27:56;16.50;;;10.37;;
10497;SDS011;5296;51.060;13.750;2023-03-01T18:32:58;11.43;;;8.60;;
10497;SDS011;5296;51.060;13.750;2023-03-01T18:37:59;11.60;;;9.17;;
10497;SDS011;5296;51.060;13.750;2023-03-01T18:43:01;12.07;;;9.57;;
10497;SDS011;5296;51.060;13.750;2023-03-01T18:48:03;13.17;;;9.20;;
10497;SDS011;5296;51.060;13.750;2023-03-01T18:53:04;13.10;;;9.47;;
10497;SDS011;5296;51.060;13.750;2023-03-01T18:58:06;12.10;;;9.23;;
10497;SDS011;5296;51.060;13.750;2023-03-01T19:03:08;15.27;;;9.40;;
10497;SDS011;5296;51.060;13.750;2023-03-01T19:08:11;13.53;;;10.47;;
10497;SDS011;5296;51.060;13.750;2023-03-01T19:13:13;14.00;;;10.00;;
10497;SDS011;5296;51.060;13.750;2023-03-01T19:18:14;12.30;;;8.27;;
10497;SDS011;5296;51.060;13.750;2023-03-01T19:23:16;11.80;;;8.03;;
10497;SDS011;5296;51.060;13.750;2023-03-01T19:28:17;14.10;;;8.60;;
10497;SDS011;5296;51.060;13.750;2023-03-01T19:33:19;10.97;;;8.10;;
10497;SDS011;5296;51.060;13.750;2023-03-01T19:38:21;12.67;;;8.77;;
10497;SDS011;5296;51.060;13.750;2023-03-01T19:43:23;10.33;;;8.33;;
10497;SDS011;5296;51.060;13.750;2023-03-01T19:48:25;12.70;;;7.77;;
10497;SDS011;5296;51.060;13.750;2023-03-01T19:53:27;11.40;;;7.97;;
10497;SDS011;5296;51.060;13.750;2023-03-01T19:58:29;13.03;;;9.77;;
10497;SDS011;5296;51.060;13.750;2023-03-01T20:03:35;10.93;;;9.40;;
10497;SDS011;5296;51.060;13.750;2023-03-01T20:08:36;14.47;;;9.27;;
10497;SDS011;5296;51.060;13.750;2023-03-01T20:13:38;15.67;;;10.77;;
10497;SDS011;5296;51.060;13.750;2023-03-01T20:18:40;18.83;;;13.30;;
10497;SDS011;5296;51.060;13.750;2023-03-01T20:23:41;13.80;;;9.70;;
10497;SDS011;5296;51.060;13.750;2023-03-01T20:28:44;16.90;;;10.90;;
10497;SDS011;5296;51.060;13.750;2023-03-01T20:33:46;17.37;;;11.37;;
10497;SDS011;5296;51.060;13.750;2023-03-01T20:38:50;15.40;;;11.33;;
10497;SDS011;5296;51.060;13.750;2023-03-01T20:43:53;17.63;;;10.47;;
10497;SDS011;5296;51.060;13.750;2023-03-01T20:48:56;14.53;;;10.30;;
10497;SDS011;5296;51.060;13.750;2023-03-01T20:53:58;19.33;;;11.80;;
10497;SDS011;5296;51.060;13.750;2023-03-01T20:59:01;14.50;;;10.27;;
10497;SDS011;5296;51.060;13.750;2023-03-01T21:04:04;15.57;;;11.17;;
10497;SDS011;5296;51.060;13.750;2023-03-01T21:09:06;16.40;;;10.80;;
10497;SDS011;5296;51.060;13.750;2023-03-01T21:14:08;14.03;;;10.80;;
10497;SDS011;5296;51.060;13.750;2023-03-01T21:19:12;17.10;;;11.50;;
10497;SDS011;5296;51.060;13.750;2023-03-01T21:24:14;16.17;;;11.23;;
10497;SDS011;5296;51.060;13.750;2023-03-01T21:29:16;17.40;;;12.13;;
10497;SDS011;5296;51.060;13.750;2023-03-01T21:34:17;19.07;;;13.00;;
10497;SDS011;5296;51.060;13.750;2023-03-01T21:39:19;16.90;;;13.47;;
10497;SDS011;5296;51.060;13.750;2023-03-01T21:44:22;20.13;;;14.50;;
10497;SDS011;5296;51.060;13.750;2023-03-01T21:49:24;22.33;;;14.83;;
10497;SDS011;5296;51.060;13.750;2023-03-01T21:54:27;18.07;;;13.30;;
10497;SDS011;5296;51.060;13.750;2023-03-01T21:59:29;18.93;;;11.77;;
10497;SDS011;5296;51.060;13.750;2023-03-01T22:04:30;15.80;;;11.87;;
10497;SDS011;5296;51.060;13.750;2023-03-01T22:09:32;16.33;;;11.20;;
10497;SDS011;5296;51.060;13.750;2023-03-01T22:14:36;18.43;;;11.50;;
10497;SDS011;5296;51.060;13.750;2023-03-01T22:19:38;21.43;;;13.70;;
10497;SDS011;5296;51.060;13.750;2023-03-01T22:24:39;21.80;;;16.63;;
10497;SDS011;5296;51.060;13.750;2023-03-01T22:29:41;19.23;;;14.97;;
10497;SDS011;5296;51.060;13.750;2023-03-01T22:34:42;20.37;;;14.87;;
10497;SDS011;5296;51.060;13.750;2023-03-01T22:39:44;19.33;;;15.00;;
10497;SDS011;5296;51.060;13.750;2023-03-01T22:44:45;20.37;;;14.57;;
10497;SDS011;5296;51.060;13.750;2023-03-01T22:56:47;17.67;;;13.37;;
10497;SDS011;5296;51.060;13.750;2023-03-01T23:01:50;22.33;;;15.83;;
10497;SDS011;5296;51.060;13.750;2023-03-01T23:06:52;24.00;;;16.00;;
10497;SDS011;5296;51.060;13.750;2023-03-01T23:11:55;19.63;;;14.37;;
10497;SDS011;5296;51.060;13.750;2023-03-01T23:16:57;21.60;;;15.47;;
10497;SDS011;5296;51.060;13.750;2023-03-01T23:22:01;21.87;;;15.83;;
10497;SDS011;5296;51.060;13.750;2023-03-01T23:27:03;21.53;;;16.30;;
10497;SDS011;5296;51.060;13.750;2023-03-01T23:32:05;25.07;;;17.73;;
10497;SDS011;5296;51.060;13.750;2023-03-01T23:37:07;24.07;;;16.43;;
10497;SDS011;5296;51.060;13.750;2023-03-01T23:42:10;22.13;;;16.37;;
10497;SDS011;5296;51.060;13.750;2023-03-01T23:47:12;25.10;;;18.00;;
10497;SDS011;5296;51.060;13.750;2023-03-01T23:52:13;23.57;;;16.97;;
10497;SDS011;5296;51.060;13.750;2023-03-01T23:57:17;19.43;;;15.60;;
